createdAt,value
2018-11-03T00:08:39.365Z,30.8
2018-11-03T00:18:38.588Z,30.8
2018-11-03T00:28:37.809Z,30.7
2018-11-03T00:38:37.026Z,30.8
2018-11-03T00:48:36.237Z,30.8
2018-11-03T00:58:35.456Z,30.8
2018-11-03T01:08:34.673Z,30.7
2018-11-03T01:18:33.897Z,30.8
2018-11-03T01:28:33.117Z,30.8
2018-11-03T01:38:32.327Z,30.8
2018-11-03T01:48:31.543Z,30.8
2018-11-03T01:58:30.762Z,30.7
2018-11-03T02:08:29.982Z,30.7
2018-11-03T02:18:29.202Z,30.7
2018-11-03T02:28:28.417Z,30.7
2018-11-03T02:38:27.635Z,30.7
2018-11-03T02:48:26.902Z,30.7
2018-11-03T02:58:26.065Z,30.7
2018-11-03T03:08:25.286Z,30.7
2018-11-03T03:18:24.506Z,30.6
2018-11-03T03:28:23.719Z,30.7
2018-11-03T03:38:22.931Z,30.6
2018-11-03T03:48:22.154Z,30.6
2018-11-03T03:58:21.371Z,30.6
2018-11-03T04:08:20.591Z,30.6
2018-11-03T04:18:19.813Z,30.6
2018-11-03T04:28:19.022Z,30.6
2018-11-03T04:38:18.242Z,30.6
2018-11-03T04:48:17.457Z,30.6
2018-11-03T04:58:16.693Z,30.6
2018-11-03T05:08:15.888Z,30.5
2018-11-03T05:18:15.101Z,30.5
2018-11-03T05:28:14.320Z,27.8
2018-11-03T05:38:13.537Z,27.7
2018-11-03T05:48:12.758Z,27.9
2018-11-03T05:58:11.971Z,25.6
2018-11-03T06:08:11.270Z,25.8
2018-11-03T06:18:10.409Z,25.4
2018-11-03T06:28:09.717Z,25.6
2018-11-03T06:38:08.840Z,25.8
2018-11-03T06:48:08.062Z,26.2
2018-11-03T06:58:07.308Z,26.3
2018-11-03T07:08:06.494Z,26.6
2018-11-03T07:18:05.713Z,27.3
2018-11-03T07:28:04.929Z,27.9
2018-11-03T07:38:04.152Z,28.6
2018-11-03T07:48:03.430Z,29.4
2018-11-03T07:58:02.586Z,30.1
2018-11-03T08:08:01.805Z,30.8
2018-11-03T08:18:01.020Z,31.4
2018-11-03T08:28:00.236Z,32
2018-11-03T08:37:59.517Z,32.6
2018-11-03T08:47:58.699Z,33.3
2018-11-03T08:57:57.890Z,33.9
2018-11-03T09:07:57.109Z,34.4
2018-11-03T09:17:56.330Z,34.9
2018-11-03T09:27:55.555Z,35.4
2018-11-03T09:37:54.767Z,36.1
2018-11-03T09:47:53.986Z,36.8
2018-11-03T09:57:53.203Z,37.4
2018-11-03T10:07:52.422Z,37.9
2018-11-03T10:17:51.635Z,38.5
2018-11-03T10:27:50.861Z,39.1
2018-11-03T10:37:50.096Z,39.6
2018-11-03T10:47:49.291Z,40.2
2018-11-03T10:57:48.508Z,40.8
2018-11-03T11:07:47.726Z,41.4
2018-11-03T11:17:46.949Z,42.1
2018-11-03T11:27:46.162Z,42.7
2018-11-03T11:37:45.384Z,43.2
2018-11-03T11:47:44.602Z,43.8
2018-11-03T11:57:43.820Z,44.3
2018-11-03T12:07:43.039Z,44.9
2018-11-03T12:17:42.252Z,45.3
2018-11-03T12:27:41.473Z,45.9
2018-11-03T12:37:40.689Z,46.3
2018-11-03T12:47:39.911Z,46.8
2018-11-03T12:57:39.126Z,47.2
2018-11-03T13:07:38.394Z,47.6
2018-11-03T13:17:37.559Z,47.9
2018-11-03T13:27:36.781Z,48.3
2018-11-03T13:37:35.995Z,48.5
2018-11-03T13:47:35.238Z,48.7
2018-11-03T13:57:34.432Z,48.9
2018-11-03T14:07:33.659Z,49
2018-11-03T14:17:32.868Z,49.1
2018-11-03T14:27:32.142Z,49.1
2018-11-03T14:37:31.302Z,49.2
2018-11-03T14:47:30.521Z,49.3
2018-11-03T14:57:29.738Z,49.1
2018-11-03T15:07:28.958Z,49
2018-11-03T15:17:28.170Z,48.9
2018-11-03T15:27:27.388Z,48.8
2018-11-03T15:37:26.604Z,48.8
2018-11-03T15:47:25.827Z,48.6
2018-11-03T15:57:25.039Z,48.6
2018-11-03T16:07:24.316Z,48.5
2018-11-03T16:17:23.472Z,48.4
2018-11-03T16:27:22.698Z,48.4
2018-11-03T16:37:21.907Z,47.9
2018-11-03T16:47:21.125Z,48.1
2018-11-03T16:57:20.347Z,47.8
2018-11-03T17:07:19.563Z,46.8
2018-11-03T17:17:18.778Z,46.8
2018-11-03T17:27:18.001Z,45.9
2018-11-03T17:37:17.219Z,45.8
2018-11-03T17:47:16.438Z,45.6
2018-11-03T17:57:15.661Z,45.4
2018-11-03T18:07:14.872Z,45.3
2018-11-03T18:17:14.091Z,44.9
2018-11-03T18:27:13.308Z,44.8
2018-11-03T18:37:12.524Z,44.4
2018-11-03T18:47:11.739Z,43.8
2018-11-03T18:57:10.961Z,40.8
2018-11-03T19:07:10.177Z,36.3
2018-11-03T19:17:09.496Z,35.8
2018-11-03T19:27:08.616Z,34.8
2018-11-03T19:37:07.830Z,34.3
2018-11-03T19:47:07.048Z,34.5
2018-11-03T19:57:06.270Z,34.1
2018-11-03T20:07:05.481Z,33.6
2018-11-03T20:17:04.701Z,33.7
2018-11-03T20:27:03.923Z,33.7
2018-11-03T20:37:03.138Z,33.8
2018-11-03T20:47:02.357Z,33.9
2018-11-03T20:57:01.569Z,34
2018-11-03T21:07:00.785Z,34
2018-11-03T21:17:00.006Z,34.1
2018-11-03T21:26:59.223Z,34.1
2018-11-03T21:36:58.448Z,34.2
2018-11-03T21:46:57.691Z,34.2
2018-11-03T21:56:56.874Z,34.3
2018-11-03T22:06:56.090Z,34.3
2018-11-03T22:16:55.304Z,34.3
2018-11-03T22:26:54.521Z,34.3
2018-11-03T22:36:53.733Z,34.3
2018-11-03T22:46:52.952Z,34.4
2018-11-03T22:56:52.196Z,34.4
2018-11-03T23:06:51.382Z,34.4
2018-11-03T23:16:50.602Z,34.4
2018-11-03T23:26:49.819Z,34.4
2018-11-03T23:36:49.035Z,34.4
2018-11-03T23:46:48.247Z,34.2
2018-11-03T23:56:47.467Z,34.3
